No particular awareness of the weather is required.    There are no Weather-warnings


Meteo18 Weather Cam more information Meteo18 Weather Cam


Thunder radar more information blitzortung!


Rain radar more information rain snow radar


Visit our other weather sites:

Template documentation
and downloads

And another site



Weather Underground History page Text

Daily Summary for August 7, 2017 Units:  Both    English   Metric
« Previous Day
Next Day »
Daily Weekly Monthly Yearly Custom
  High: Low: Average:
Temperature: TemperatureC °F /  -17.8 °C 11.8 °F /  -11.2 °C 20 °F /  -6.7 °C
Dew Point: DewpointC °F /  -17.8 °C 8.0 °F /  -13.3 °C 9.9 °F /  -12.3 °C
Humidity: Humidity % 32 % 54 %
Wind Speed: WindSpeedKMH mph /  0 km/h - 3.6 mph /  5.8 km/h
Wind Gust: WindSpeedGustKMH mph /  0 km/h - -
Wind:- - SE
Pressure: PressurehPa in /  0 hPa 1012.4 in /  34279.9 hPa -
Precipitation: 0.0 in /  0 mm    
Historical Graphs
 
 
Tabular Data for August 7, 2017
Time Temperature Dew Point Pressure Wind Wind Speed Wind Gust Humidity Rainfall Rate (Hourly)
TemperatureC °F /  -17.8 °C DewpointC °F /  -17.8 °C PressurehPa in /  0 hPa Calm     Humidity % HourlyPrecipMM in /  0 mm
00:02 15.3 °F /  -9.3 °C 8.8 °F /  -12.9 °C 1022.2 in /  34611.7 hPa NNE 1.6 mph /  2.6 km/h 3.2 mph /  5.1 km/h 65 % 0.0 in /  0 mm
00:07 15.3 °F /  -9.3 °C 8.5 °F /  -13.1 °C 1022.2 in /  34611.7 hPa North 1.6 mph /  2.6 km/h 3.2 mph /  5.1 km/h 64 % 0.0 in /  0 mm
00:17 15.3 °F /  -9.3 °C 8.5 °F /  -13.1 °C 1022.2 in /  34611.7 hPa Calm   3.2 mph /  5.1 km/h 64 % 0.0 in /  0 mm
00:22 15.2 °F /  -9.3 °C 8.4 °F /  -13.1 °C 1022.2 in /  34611.7 hPa Calm   1.6 mph /  2.6 km/h 64 % 0.0 in /  0 mm
00:27 15.1 °F /  -9.4 °C 8.3 °F /  -13.2 °C 1022.2 in /  34611.7 hPa Calm     64 % 0.0 in /  0 mm
00:32 15.3 °F /  -9.3 °C 8.3 °F /  -13.2 °C 1022.2 in /  34611.7 hPa Calm   3.2 mph /  5.1 km/h 63 % 0.0 in /  0 mm
00:37 15.3 °F /  -9.3 °C 8.3 °F /  -13.2 °C 1022.2 in /  34611.7 hPa WNW 1.6 mph /  2.6 km/h 3.2 mph /  5.1 km/h 63 % 0.0 in /  0 mm
00:42 14.9 °F /  -9.5 °C 8.1 °F /  -13.3 °C 1022.2 in /  34611.7 hPa NW 1.6 mph /  2.6 km/h 3.2 mph /  5.1 km/h 64 % 0.0 in /  0 mm
00:47 14.8 °F /  -9.6 °C 8.3 °F /  -13.2 °C 1022.2 in /  34611.7 hPa WNW 1.6 mph /  2.6 km/h 3.2 mph /  5.1 km/h 65 % 0.0 in /  0 mm
00:52 14.6 °F /  -9.7 °C 8.3 °F /  -13.2 °C 1022.2 in /  34611.7 hPa WNW 1.6 mph /  2.6 km/h 3.2 mph /  5.1 km/h 66 % 0.0 in /  0 mm
00:57 14.7 °F /  -9.6 °C 8.2 °F /  -13.2 °C 1022.2 in /  34611.7 hPa Calm   3.2 mph /  5.1 km/h 65 % 0.0 in /  0 mm
01:02 14.7 °F /  -9.6 °C 8.2 °F /  -13.2 °C 1022.2 in /  34611.7 hPa NNW 1.6 mph /  2.6 km/h 1.6 mph /  2.6 km/h 65 % 0.0 in /  0 mm
01:07 14.7 °F /  -9.6 °C 8.2 °F /  -13.2 °C 1022.2 in /  34611.7 hPa Calm   1.6 mph /  2.6 km/h 65 % 0.0 in /  0 mm
01:12 14.7 °F /  -9.6 °C 8.2 °F /  -13.2 °C 1022.2 in /  34611.7 hPa Calm   1.6 mph /  2.6 km/h 65 % 0.0 in /  0 mm
01:17 14.6 °F /  -9.7 °C 8.3 °F /  -13.2 °C 1022.2 in /  34611.7 hPa Calm   1.6 mph /  2.6 km/h 66 % 0.0 in /  0 mm
01:22 14.4 °F /  -9.8 °C 8.1 °F /  -13.3 °C 1022.2 in /  34611.7 hPa Calm   3.2 mph /  5.1 km/h 66 % 0.0 in /  0 mm
01:27 14.2 °F /  -9.9 °C 8.2 °F /  -13.2 °C 1021.9 in /  34601.5 hPa Calm   3.2 mph /  5.1 km/h 67 % 0.0 in /  0 mm
01:32 14.1 °F /  -9.9 °C 8.3 °F /  -13.2 °C 1021.9 in /  34601.5 hPa Calm   1.6 mph /  2.6 km/h 68 % 0.0 in /  0 mm
01:37 14.1 °F /  -9.9 °C 8.3 °F /  -13.2 °C 1021.9 in /  34601.5 hPa North 1.6 mph /  2.6 km/h 3.2 mph /  5.1 km/h 68 % 0.0 in /  0 mm
01:42 14.1 °F /  -9.9 °C 8.3 °F /  -13.2 °C 1021.9 in /  34601.5 hPa NW 1.6 mph /  2.6 km/h 3.2 mph /  5.1 km/h 68 % 0.0 in /  0 mm
02:02 14.2 °F /  -9.9 °C 8.4 °F /  -13.1 °C 1021.9 in /  34601.5 hPa Calm   1.6 mph /  2.6 km/h 68 % 0.0 in /  0 mm
02:07 14.1 °F /  -9.9 °C 8.3 °F /  -13.2 °C 1021.9 in /  34601.5 hPa NW 1.6 mph /  2.6 km/h 1.6 mph /  2.6 km/h 68 % 0.0 in /  0 mm
02:12 13.9 °F /  -10.1 °C 8.3 °F /  -13.2 °C 1021.9 in /  34601.5 hPa Calm   1.6 mph /  2.6 km/h 69 % 0.0 in /  0 mm
02:17 14.0 °F /  -10 °C 8.4 °F /  -13.1 °C 1021.6 in /  34591.4 hPa NW 1.6 mph /  2.6 km/h 1.6 mph /  2.6 km/h 69 % 0.0 in /  0 mm
02:22 14.2 °F /  -9.9 °C 8.4 °F /  -13.1 °C 1021.6 in /  34591.4 hPa Calm   1.6 mph /  2.6 km/h 68 % 0.0 in /  0 mm
02:32 14.2 °F /  -9.9 °C 8.4 °F /  -13.1 °C 1021.6 in /  34591.4 hPa NW 1.6 mph /  2.6 km/h 1.6 mph /  2.6 km/h 68 % 0.0 in /  0 mm
02:37 14.1 °F /  -9.9 °C 8.5 °F /  -13.1 °C 1021.6 in /  34591.4 hPa NNW 1.6 mph /  2.6 km/h 3.2 mph /  5.1 km/h 69 % 0.0 in /  0 mm
02:42 14.0 °F /  -10 °C 8.4 °F /  -13.1 °C 1021.6 in /  34591.4 hPa NNW 1.6 mph /  2.6 km/h 3.2 mph /  5.1 km/h 69 % 0.0 in /  0 mm
02:47 13.8 °F /  -10.1 °C 8.4 °F /  -13.1 °C 1021.6 in /  34591.4 hPa NNW 1.6 mph /  2.6 km/h 3.2 mph /  5.1 km/h 70 % 0.0 in /  0 mm
02:52 13.8 °F /  -10.1 °C 8.4 °F /  -13.1 °C 1021.6 in /  34591.4 hPa NNW 1.6 mph /  2.6 km/h 3.2 mph /  5.1 km/h 70 % 0.0 in /  0 mm
02:57 13.9 °F /  -10.1 °C 8.5 °F /  -13.1 °C 1021.6 in /  34591.4 hPa NNW 1.6 mph /  2.6 km/h 3.2 mph /  5.1 km/h 70 % 0.0 in /  0 mm
03:02 13.9 °F /  -10.1 °C 8.5 °F /  -13.1 °C 1021.6 in /  34591.4 hPa NNW 1.6 mph /  2.6 km/h 3.2 mph /  5.1 km/h 70 % 0.0 in /  0 mm
03:07 13.9 °F /  -10.1 °C 8.5 °F /  -13.1 °C 1021.6 in /  34591.4 hPa NNW 1.6 mph /  2.6 km/h 3.2 mph /  5.1 km/h 70 % 0.0 in /  0 mm
03:12 13.8 °F /  -10.1 °C 8.4 °F /  -13.1 °C 1021.6 in /  34591.4 hPa Calm   3.2 mph /  5.1 km/h 70 % 0.0 in /  0 mm
03:17 13.7 °F /  -10.2 °C 8.5 °F /  -13.1 °C 1021.2 in /  34577.8 hPa Calm   3.2 mph /  5.1 km/h 71 % 0.0 in /  0 mm
03:22 13.6 °F /  -10.2 °C 8.4 °F /  -13.1 °C 1021.2 in /  34577.8 hPa NNW 1.6 mph /  2.6 km/h 3.2 mph /  5.1 km/h 71 % 0.0 in /  0 mm
03:27 13.6 °F /  -10.2 °C 8.6 °F /  -13 °C 1021.2 in /  34577.8 hPa NNW 1.6 mph /  2.6 km/h 3.2 mph /  5.1 km/h 72 % 0.0 in /  0 mm
03:32 13.6 °F /  -10.2 °C 8.6 °F /  -13 °C 1021.2 in /  34577.8 hPa NNW 1.6 mph /  2.6 km/h 3.2 mph /  5.1 km/h 72 % 0.0 in /  0 mm
03:37 13.6 °F /  -10.2 °C 8.4 °F /  -13.1 °C 1021.2 in /  34577.8 hPa NW 1.6 mph /  2.6 km/h 4.8 mph /  7.7 km/h 71 % 0.0 in /  0 mm
03:42 13.6 °F /  -10.2 °C 8.4 °F /  -13.1 °C 1021.2 in /  34577.8 hPa NNW 3.2 mph /  5.1 km/h 6.4 mph /  10.3 km/h 71 % 0.0 in /  0 mm
03:52 13.7 °F /  -10.2 °C 8.5 °F /  -13.1 °C 1020.9 in /  34567.7 hPa NW 1.6 mph /  2.6 km/h 6.4 mph /  10.3 km/h 71 % 0.0 in /  0 mm
03:57 13.6 °F /  -10.2 °C 8.4 °F /  -13.1 °C 1020.9 in /  34567.7 hPa Calm   4.8 mph /  7.7 km/h 71 % 0.0 in /  0 mm
04:02 13.6 °F /  -10.2 °C 8.6 °F /  -13 °C 1020.9 in /  34567.7 hPa Calm   4.8 mph /  7.7 km/h 72 % 0.0 in /  0 mm
04:07 13.6 °F /  -10.2 °C 8.4 °F /  -13.1 °C 1020.9 in /  34567.7 hPa Calm   3.2 mph /  5.1 km/h 71 % 0.0 in /  0 mm
04:12 13.6 °F /  -10.2 °C 8.4 °F /  -13.1 °C 1020.9 in /  34567.7 hPa NNW 3.2 mph /  5.1 km/h 3.2 mph /  5.1 km/h 71 % 0.0 in /  0 mm
04:17 13.6 °F /  -10.2 °C 8.4 °F /  -13.1 °C 1020.9 in /  34567.7 hPa NNW 1.6 mph /  2.6 km/h 4.8 mph /  7.7 km/h 71 % 0.0 in /  0 mm
04:22 13.6 °F /  -10.2 °C 8.4 °F /  -13.1 °C 1020.5 in /  34554.1 hPa NNW 1.6 mph /  2.6 km/h 4.8 mph /  7.7 km/h 71 % 0.0 in /  0 mm
04:27 13.4 °F /  -10.3 °C 8.2 °F /  -13.2 °C 1020.5 in /  34554.1 hPa NNW 1.6 mph /  2.6 km/h 4.8 mph /  7.7 km/h 71 % 0.0 in /  0 mm
04:32 13.4 °F /  -10.3 °C 8.5 °F /  -13.1 °C 1020.5 in /  34554.1 hPa NNW 1.6 mph /  2.6 km/h 4.8 mph /  7.7 km/h 72 % 0.0 in /  0 mm
04:37 13.4 °F /  -10.3 °C 8.5 °F /  -13.1 °C 1020.5 in /  34554.1 hPa Calm   4.8 mph /  7.7 km/h 72 % 0.0 in /  0 mm
04:42 13.4 °F /  -10.3 °C 8.2 °F /  -13.2 °C 1020.5 in /  34554.1 hPa NNW 1.6 mph /  2.6 km/h 4.8 mph /  7.7 km/h 71 % 0.0 in /  0 mm
04:47 13.4 °F /  -10.3 °C 8.5 °F /  -13.1 °C 1020.5 in /  34554.1 hPa North 1.6 mph /  2.6 km/h 3.2 mph /  5.1 km/h 72 % 0.0 in /  0 mm
04:52 13.5 °F /  -10.3 °C 8.3 °F /  -13.2 °C 1020.5 in /  34554.1 hPa North 1.6 mph /  2.6 km/h 3.2 mph /  5.1 km/h 71 % 0.0 in /  0 mm
04:57 13.3 °F /  -10.4 °C 8.4 °F /  -13.1 °C 1020.5 in /  34554.1 hPa North 1.6 mph /  2.6 km/h 3.2 mph /  5.1 km/h 72 % 0.0 in /  0 mm
05:02 13.1 °F /  -10.5 °C 8.2 °F /  -13.2 °C 1020.5 in /  34554.1 hPa North 1.6 mph /  2.6 km/h 3.2 mph /  5.1 km/h 72 % 0.0 in /  0 mm
05:07 13.1 °F /  -10.5 °C 8.4 °F /  -13.1 °C 1020.5 in /  34554.1 hPa NNW 1.6 mph /  2.6 km/h 3.2 mph /  5.1 km/h 73 % 0.0 in /  0 mm
05:17 13.2 °F /  -10.4 °C 8.5 °F /  -13.1 °C 1020.2 in /  34544 hPa NW 1.6 mph /  2.6 km/h 3.2 mph /  5.1 km/h 73 % 0.0 in /  0 mm
05:22 13.2 °F /  -10.4 °C 8.5 °F /  -13.1 °C 1020.2 in /  34544 hPa Calm   4.8 mph /  7.7 km/h 73 % 0.0 in /  0 mm
05:27 13.2 °F /  -10.4 °C 8.3 °F /  -13.2 °C 1020.2 in /  34544 hPa Calm   4.8 mph /  7.7 km/h 72 % 0.0 in /  0 mm
05:32 13.2 °F /  -10.4 °C 8.3 °F /  -13.2 °C 1020.2 in /  34544 hPa NNW 1.6 mph /  2.6 km/h 4.8 mph /  7.7 km/h 72 % 0.0 in /  0 mm
05:37 13.2 °F /  -10.4 °C 8.5 °F /  -13.1 °C 1020.2 in /  34544 hPa NNW 1.6 mph /  2.6 km/h 3.2 mph /  5.1 km/h 73 % 0.0 in /  0 mm
05:42 13.1 °F /  -10.5 °C 8.4 °F /  -13.1 °C 1020.2 in /  34544 hPa NNW 1.6 mph /  2.6 km/h 3.2 mph /  5.1 km/h 73 % 0.0 in /  0 mm
05:47 13.1 °F /  -10.5 °C 8.4 °F /  -13.1 °C 1020.2 in /  34544 hPa NNW 1.6 mph /  2.6 km/h 3.2 mph /  5.1 km/h 73 % 0.0 in /  0 mm
05:52 13.2 °F /  -10.4 °C 8.5 °F /  -13.1 °C 1020.2 in /  34544 hPa Calm   4.8 mph /  7.7 km/h 73 % 0.0 in /  0 mm
05:57 13.1 °F /  -10.5 °C 8.4 °F /  -13.1 °C 1020.2 in /  34544 hPa Calm   4.8 mph /  7.7 km/h 73 % 0.0 in /  0 mm
06:02 13.0 °F /  -10.6 °C 8.3 °F /  -13.2 °C 1020.2 in /  34544 hPa Calm   4.8 mph /  7.7 km/h 73 % 0.0 in /  0 mm
06:12 12.5 °F /  -10.8 °C 8.0 °F /  -13.3 °C 1019.9 in /  34533.8 hPa Calm   1.6 mph /  2.6 km/h 74 % 0.0 in /  0 mm
06:17 12.4 °F /  -10.9 °C 8.1 °F /  -13.3 °C 1019.9 in /  34533.8 hPa WNW 1.6 mph /  2.6 km/h 1.6 mph /  2.6 km/h 75 % 0.0 in /  0 mm
06:22 12.2 °F /  -11 °C 8.1 °F /  -13.3 °C 1019.9 in /  34533.8 hPa WNW 3.2 mph /  5.1 km/h 3.2 mph /  5.1 km/h 76 % 0.0 in /  0 mm
06:27 12.1 °F /  -11.1 °C 8.2 °F /  -13.2 °C 1019.9 in /  34533.8 hPa Calm   1.6 mph /  2.6 km/h 77 % 0.0 in /  0 mm
06:32 12.1 °F /  -11.1 °C 8.2 °F /  -13.2 °C 1019.9 in /  34533.8 hPa WNW 1.6 mph /  2.6 km/h 3.2 mph /  5.1 km/h 77 % 0.0 in /  0 mm
06:37 11.9 °F /  -11.2 °C 8.2 °F /  -13.2 °C 1019.9 in /  34533.8 hPa WNW 1.6 mph /  2.6 km/h 3.2 mph /  5.1 km/h 78 % 0.0 in /  0 mm
06:42 11.9 °F /  -11.2 °C 8.0 °F /  -13.3 °C 1019.9 in /  34533.8 hPa WNW 1.6 mph /  2.6 km/h 3.2 mph /  5.1 km/h 77 % 0.0 in /  0 mm
06:47 11.9 °F /  -11.2 °C 8.0 °F /  -13.3 °C 1019.9 in /  34533.8 hPa Calm   3.2 mph /  5.1 km/h 77 % 0.0 in /  0 mm
06:52 11.8 °F /  -11.2 °C 8.1 °F /  -13.3 °C 1019.9 in /  34533.8 hPa WNW 1.6 mph /  2.6 km/h 4.8 mph /  7.7 km/h 78 % 0.0 in /  0 mm
07:02 12.3 °F /  -10.9 °C 8.4 °F /  -13.1 °C 1019.9 in /  34533.8 hPa Calm   4.8 mph /  7.7 km/h 77 % 0.0 in /  0 mm
07:12 13.0 °F /  -10.6 °C 8.5 °F /  -13.1 °C 1019.9 in /  34533.8 hPa Calm   4.8 mph /  7.7 km/h 74 % 0.0 in /  0 mm
07:17 13.1 °F /  -10.5 °C 8.6 °F /  -13 °C 1019.9 in /  34533.8 hPa Calm   4.8 mph /  7.7 km/h 74 % 0.0 in /  0 mm
07:22 13.3 °F /  -10.4 °C 8.4 °F /  -13.1 °C 1019.9 in /  34533.8 hPa Calm   4.8 mph /  7.7 km/h 72 % 0.0 in /  0 mm
07:27 13.3 °F /  -10.4 °C 8.6 °F /  -13 °C 1019.9 in /  34533.8 hPa Calm   3.2 mph /  5.1 km/h 73 % 0.0 in /  0 mm
07:32 13.5 °F /  -10.3 °C 8.8 °F /  -12.9 °C 1019.9 in /  34533.8 hPa Calm   3.2 mph /  5.1 km/h 73 % 0.0 in /  0 mm
07:42 14.3 °F /  -9.8 °C 9.1 °F /  -12.7 °C 1019.9 in /  34533.8 hPa Calm   3.2 mph /  5.1 km/h 71 % 0.0 in /  0 mm
07:47 14.7 °F /  -9.6 °C 9.5 °F /  -12.5 °C 1019.9 in /  34533.8 hPa Calm   3.2 mph /  5.1 km/h 71 % 0.0 in /  0 mm
07:52 14.9 °F /  -9.5 °C 9.3 °F /  -12.6 °C 1019.9 in /  34533.8 hPa Calm   3.2 mph /  5.1 km/h 69 % 0.0 in /  0 mm
07:57 15.2 °F /  -9.3 °C 9.5 °F /  -12.5 °C 1019.9 in /  34533.8 hPa North 3.2 mph /  5.1 km/h 3.2 mph /  5.1 km/h 69 % 0.0 in /  0 mm
08:02 15.4 °F /  -9.2 °C 9.5 °F /  -12.5 °C 1019.9 in /  34533.8 hPa NNW 6.4 mph /  10.3 km/h 6.4 mph /  10.3 km/h 68 % 0.0 in /  0 mm
08:07 15.6 °F /  -9.1 °C 9.5 °F /  -12.5 °C 1019.9 in /  34533.8 hPa North 4.8 mph /  7.7 km/h 6.4 mph /  10.3 km/h 67 % 0.0 in /  0 mm
08:12 15.7 °F /  -9.1 °C 9.6 °F /  -12.4 °C 1019.9 in /  34533.8 hPa North 4.8 mph /  7.7 km/h 6.4 mph /  10.3 km/h 67 % 0.0 in /  0 mm
08:17 15.9 °F /  -8.9 °C 9.6 °F /  -12.4 °C 1019.5 in /  34520.3 hPa North 3.2 mph /  5.1 km/h 6.4 mph /  10.3 km/h 66 % 0.0 in /  0 mm
08:22 16.2 °F /  -8.8 °C 9.8 °F /  -12.3 °C 1019.9 in /  34533.8 hPa NE 4.8 mph /  7.7 km/h 8.0 mph /  12.9 km/h 66 % 0.0 in /  0 mm
08:32 16.7 °F /  -8.5 °C 10.1 °F /  -12.2 °C 1019.5 in /  34520.3 hPa North 4.8 mph /  7.7 km/h 8.0 mph /  12.9 km/h 65 % 0.0 in /  0 mm
08:42 17.3 °F /  -8.2 °C 10.2 °F /  -12.1 °C 1019.5 in /  34520.3 hPa North 6.4 mph /  10.3 km/h 8.0 mph /  12.9 km/h 63 % 0.0 in /  0 mm
08:47 17.4 °F /  -8.1 °C 9.6 °F /  -12.4 °C 1019.5 in /  34520.3 hPa NNE 3.2 mph /  5.1 km/h 9.7 mph /  15.6 km/h 60 % 0.0 in /  0 mm
08:52 17.8 °F /  -7.9 °C 9.9 °F /  -12.3 °C 1019.5 in /  34520.3 hPa NNE 4.8 mph /  7.7 km/h 9.7 mph /  15.6 km/h 60 % 0.0 in /  0 mm
09:07 18.3 °F /  -7.6 °C 9.6 °F /  -12.4 °C 1019.9 in /  34533.8 hPa NE 3.2 mph /  5.1 km/h 9.7 mph /  15.6 km/h 57 % 0.0 in /  0 mm
09:12 18.3 °F /  -7.6 °C 9.6 °F /  -12.4 °C 1019.5 in /  34520.3 hPa NNW 3.2 mph /  5.1 km/h 9.7 mph /  15.6 km/h 57 % 0.0 in /  0 mm
09:17 18.4 °F /  -7.6 °C 9.5 °F /  -12.5 °C 1019.5 in /  34520.3 hPa ENE 1.6 mph /  2.6 km/h 9.7 mph /  15.6 km/h 56 % 0.0 in /  0 mm
09:22 18.8 °F /  -7.3 °C 9.8 °F /  -12.3 °C 1019.5 in /  34520.3 hPa Calm   9.7 mph /  15.6 km/h 56 % 0.0 in /  0 mm
09:27 18.8 °F /  -7.3 °C 9.3 °F /  -12.6 °C 1019.5 in /  34520.3 hPa ENE 8.0 mph /  12.9 km/h 9.7 mph /  15.6 km/h 54 % 0.0 in /  0 mm
09:32 18.9 °F /  -7.3 °C 9.7 °F /  -12.4 °C 1019.5 in /  34520.3 hPa NE 3.2 mph /  5.1 km/h 9.7 mph /  15.6 km/h 55 % 0.0 in /  0 mm
09:42 19.1 °F /  -7.2 °C 9.3 °F /  -12.6 °C 1019.9 in /  34533.8 hPa ENE 6.4 mph /  10.3 km/h 9.7 mph /  15.6 km/h 53 % 0.0 in /  0 mm
09:47 19.1 °F /  -7.2 °C 9.3 °F /  -12.6 °C 1019.9 in /  34533.8 hPa East 6.4 mph /  10.3 km/h 11.3 mph /  18.2 km/h 53 % 0.0 in /  0 mm
09:52 19.2 °F /  -7.1 °C 9.7 °F /  -12.4 °C 1019.5 in /  34520.3 hPa NE 3.2 mph /  5.1 km/h 11.3 mph /  18.2 km/h 54 % 0.0 in /  0 mm
09:57 19.4 °F /  -7 °C 9.6 °F /  -12.4 °C 1019.5 in /  34520.3 hPa ENE 4.8 mph /  7.7 km/h 8.0 mph /  12.9 km/h 53 % 0.0 in /  0 mm
10:02 19.4 °F /  -7 °C 9.6 °F /  -12.4 °C 1019.5 in /  34520.3 hPa NE 4.8 mph /  7.7 km/h 8.0 mph /  12.9 km/h 53 % 0.0 in /  0 mm
10:07 19.6 °F /  -6.9 °C 9.8 °F /  -12.3 °C 1019.5 in /  34520.3 hPa ENE 3.2 mph /  5.1 km/h 8.0 mph /  12.9 km/h 53 % 0.0 in /  0 mm
10:12 19.8 °F /  -6.8 °C 9.9 °F /  -12.3 °C 1019.2 in /  34510.1 hPa Calm   9.7 mph /  15.6 km/h 53 % 0.0 in /  0 mm
10:17 20.2 °F /  -6.6 °C 9.7 °F /  -12.4 °C 1019.2 in /  34510.1 hPa NE 6.4 mph /  10.3 km/h 9.7 mph /  15.6 km/h 51 % 0.0 in /  0 mm
10:22 20.1 °F /  -6.6 °C 9.6 °F /  -12.4 °C 1019.2 in /  34510.1 hPa Calm   9.7 mph /  15.6 km/h 51 % 0.0 in /  0 mm
10:42 20.9 °F /  -6.2 °C 10.1 °F /  -12.2 °C 1019.2 in /  34510.1 hPa Calm   8.0 mph /  12.9 km/h 50 % 0.0 in /  0 mm
10:47 20.9 °F /  -6.2 °C 10.4 °F /  -12 °C 1019.2 in /  34510.1 hPa NNE 3.2 mph /  5.1 km/h 9.7 mph /  15.6 km/h 51 % 0.0 in /  0 mm
10:52 21.2 °F /  -6 °C 10.1 °F /  -12.2 °C 1019.2 in /  34510.1 hPa NNE 8.0 mph /  12.9 km/h 9.7 mph /  15.6 km/h 49 % 0.0 in /  0 mm
10:57 21.1 °F /  -6.1 °C 10.3 °F /  -12.1 °C 1019.2 in /  34510.1 hPa NNE 1.6 mph /  2.6 km/h 9.7 mph /  15.6 km/h 50 % 0.0 in /  0 mm
11:02 21.6 °F /  -5.8 °C 10.7 °F /  -11.8 °C 1018.8 in /  34496.6 hPa ENE 4.8 mph /  7.7 km/h 9.7 mph /  15.6 km/h 50 % 0.0 in /  0 mm
11:07 21.6 °F /  -5.8 °C 10.4 °F /  -12 °C 1018.8 in /  34496.6 hPa East 4.8 mph /  7.7 km/h 9.7 mph /  15.6 km/h 49 % 0.0 in /  0 mm
11:12 21.6 °F /  -5.8 °C 10.1 °F /  -12.2 °C 1018.8 in /  34496.6 hPa ENE 3.2 mph /  5.1 km/h 8.0 mph /  12.9 km/h 48 % 0.0 in /  0 mm
11:17 21.7 °F /  -5.7 °C 10.2 °F /  -12.1 °C 1018.8 in /  34496.6 hPa ENE 4.8 mph /  7.7 km/h 8.0 mph /  12.9 km/h 48 % 0.0 in /  0 mm
11:22 21.7 °F /  -5.7 °C 10.2 °F /  -12.1 °C 1018.8 in /  34496.6 hPa ENE 6.4 mph /  10.3 km/h 9.7 mph /  15.6 km/h 48 % 0.0 in /  0 mm
11:32 22.1 °F /  -5.5 °C 10.3 °F /  -12.1 °C 1018.5 in /  34486.4 hPa ENE 3.2 mph /  5.1 km/h 12.9 mph /  20.8 km/h 47 % 0.0 in /  0 mm
11:37 22.2 °F /  -5.4 °C 9.7 °F /  -12.4 °C 1018.5 in /  34486.4 hPa NE 4.8 mph /  7.7 km/h 12.9 mph /  20.8 km/h 45 % 0.0 in /  0 mm
11:42 22.3 °F /  -5.4 °C 9.5 °F /  -12.5 °C 1018.5 in /  34486.4 hPa NNE 11.3 mph /  18.2 km/h 12.9 mph /  20.8 km/h 44 % 0.0 in /  0 mm
11:52 22.5 °F /  -5.3 °C 9.6 °F /  -12.4 °C 1018.5 in /  34486.4 hPa East 4.8 mph /  7.7 km/h 14.5 mph /  23.3 km/h 44 % 0.0 in /  0 mm
11:57 22.5 °F /  -5.3 °C 10.3 °F /  -12.1 °C 1018.5 in /  34486.4 hPa ENE 6.4 mph /  10.3 km/h 14.5 mph /  23.3 km/h 46 % 0.0 in /  0 mm
12:02 22.8 °F /  -5.1 °C 10.6 °F /  -11.9 °C 1018.2 in /  34476.3 hPa ENE 6.4 mph /  10.3 km/h 14.5 mph /  23.3 km/h 46 % 0.0 in /  0 mm
12:07 22.7 °F /  -5.2 °C 9.8 °F /  -12.3 °C 1018.2 in /  34476.3 hPa ENE 11.3 mph /  18.2 km/h 17.7 mph /  28.5 km/h 44 % 0.0 in /  0 mm
12:12 22.5 °F /  -5.3 °C 9.3 °F /  -12.6 °C 1018.2 in /  34476.3 hPa NE 11.3 mph /  18.2 km/h 17.7 mph /  28.5 km/h 43 % 0.0 in /  0 mm
12:17 22.6 °F /  -5.2 °C 9.7 °F /  -12.4 °C 1018.2 in /  34476.3 hPa SSE 3.2 mph /  5.1 km/h 17.7 mph /  28.5 km/h 44 % 0.0 in /  0 mm
12:22 22.8 °F /  -5.1 °C 9.9 °F /  -12.3 °C 1018.2 in /  34476.3 hPa East 8.0 mph /  12.9 km/h 17.7 mph /  28.5 km/h 44 % 0.0 in /  0 mm
12:32 23.1 °F /  -4.9 °C 10.2 °F /  -12.1 °C 1018.2 in /  34476.3 hPa ENE 3.2 mph /  5.1 km/h 14.5 mph /  23.3 km/h 44 % 0.0 in /  0 mm
12:37 23.2 °F /  -4.9 °C 9.9 °F /  -12.3 °C 1018.2 in /  34476.3 hPa Calm   14.5 mph /  23.3 km/h 43 % 0.0 in /  0 mm
12:42 23.1 °F /  -4.9 °C 10.2 °F /  -12.1 °C 1017.8 in /  34462.7 hPa ENE 3.2 mph /  5.1 km/h 12.9 mph /  20.8 km/h 44 % 0.0 in /  0 mm
12:47 23.3 °F /  -4.8 °C 9.7 °F /  -12.4 °C 1017.8 in /  34462.7 hPa North 11.3 mph /  18.2 km/h 12.9 mph /  20.8 km/h 42 % 0.0 in /  0 mm
12:52 23.3 °F /  -4.8 °C 9.7 °F /  -12.4 °C 1017.8 in /  34462.7 hPa ENE 6.4 mph /  10.3 km/h 12.9 mph /  20.8 km/h 42 % 0.0 in /  0 mm
12:57 23.6 °F /  -4.7 °C 9.2 °F /  -12.7 °C 1017.8 in /  34462.7 hPa ENE 6.4 mph /  10.3 km/h 16.1 mph /  25.9 km/h 40 % 0.0 in /  0 mm
13:02 23.7 °F /  -4.6 °C 9.3 °F /  -12.6 °C 1017.5 in /  34452.6 hPa East 1.6 mph /  2.6 km/h 16.1 mph /  25.9 km/h 40 % 0.0 in /  0 mm
13:12 23.9 °F /  -4.5 °C 9.5 °F /  -12.5 °C 1017.5 in /  34452.6 hPa NE 4.8 mph /  7.7 km/h 19.3 mph /  31.1 km/h 40 % 0.0 in /  0 mm
13:17 23.8 °F /  -4.6 °C 9.4 °F /  -12.6 °C 1017.5 in /  34452.6 hPa ESE 1.6 mph /  2.6 km/h 19.3 mph /  31.1 km/h 40 % 0.0 in /  0 mm
13:22 23.7 °F /  -4.6 °C 9.7 °F /  -12.4 °C 1017.2 in /  34442.4 hPa NNE 6.4 mph /  10.3 km/h 19.3 mph /  31.1 km/h 41 % 0.0 in /  0 mm
13:27 24.1 °F /  -4.4 °C 9.7 °F /  -12.4 °C 1017.2 in /  34442.4 hPa NE 4.8 mph /  7.7 km/h 19.3 mph /  31.1 km/h 40 % 0.0 in /  0 mm
13:32 24.2 °F /  -4.3 °C 10.1 °F /  -12.2 °C 1017.2 in /  34442.4 hPa ENE 8.0 mph /  12.9 km/h 19.3 mph /  31.1 km/h 41 % 0.0 in /  0 mm
13:37 24.3 °F /  -4.3 °C 10.6 °F /  -11.9 °C 1017.2 in /  34442.4 hPa ENE 4.8 mph /  7.7 km/h 19.3 mph /  31.1 km/h 42 % 0.0 in /  0 mm
13:42 24.3 °F /  -4.3 °C 10.2 °F /  -12.1 °C 1016.8 in /  34428.8 hPa NE 6.4 mph /  10.3 km/h 19.3 mph /  31.1 km/h 41 % 0.0 in /  0 mm
13:47 24.4 °F /  -4.2 °C 10.3 °F /  -12.1 °C 1016.8 in /  34428.8 hPa East 8.0 mph /  12.9 km/h 19.3 mph /  31.1 km/h 41 % 0.0 in /  0 mm
13:52 24.7 °F /  -4.1 °C 10.2 °F /  -12.1 °C 1016.8 in /  34428.8 hPa North 9.7 mph /  15.6 km/h 19.3 mph /  31.1 km/h 40 % 0.0 in /  0 mm
13:57 24.6 °F /  -4.1 °C 10.8 °F /  -11.8 °C 1016.5 in /  34418.7 hPa NE 4.8 mph /  7.7 km/h 19.3 mph /  31.1 km/h 42 % 0.0 in /  0 mm
14:02 24.7 °F /  -4.1 °C 10.9 °F /  -11.7 °C 1016.5 in /  34418.7 hPa East 6.4 mph /  10.3 km/h 17.7 mph /  28.5 km/h 42 % 0.0 in /  0 mm
14:07 24.7 °F /  -4.1 °C 10.2 °F /  -12.1 °C 1016.5 in /  34418.7 hPa Calm   22.5 mph /  36.2 km/h 40 % 0.0 in /  0 mm
14:12 24.6 °F /  -4.1 °C 10.1 °F /  -12.2 °C 1016.5 in /  34418.7 hPa NE 6.4 mph /  10.3 km/h 22.5 mph /  36.2 km/h 40 % 0.0 in /  0 mm
14:17 25.0 °F /  -3.9 °C 10.1 °F /  -12.2 °C 1016.5 in /  34418.7 hPa SE 6.4 mph /  10.3 km/h 22.5 mph /  36.2 km/h 39 % 0.0 in /  0 mm
14:22 25.0 °F /  -3.9 °C 8.5 °F /  -13.1 °C 1016.5 in /  34418.7 hPa NE 6.4 mph /  10.3 km/h 17.7 mph /  28.5 km/h 35 % 0.0 in /  0 mm
14:27 24.9 °F /  -3.9 °C 9.6 °F /  -12.4 °C 1016.5 in /  34418.7 hPa ESE 3.2 mph /  5.1 km/h 19.3 mph /  31.1 km/h 38 % 0.0 in /  0 mm
14:32 25.1 °F /  -3.8 °C 9.8 °F /  -12.3 °C 1016.5 in /  34418.7 hPa ENE 9.7 mph /  15.6 km/h 19.3 mph /  31.1 km/h 38 % 0.0 in /  0 mm
14:37 25.1 °F /  -3.8 °C 9.4 °F /  -12.6 °C 1016.1 in /  34405.1 hPa NE 9.7 mph /  15.6 km/h 17.7 mph /  28.5 km/h 37 % 0.0 in /  0 mm
14:42 24.9 °F /  -3.9 °C 9.6 °F /  -12.4 °C 1016.1 in /  34405.1 hPa NE 1.6 mph /  2.6 km/h 14.5 mph /  23.3 km/h 38 % 0.0 in /  0 mm
14:47 25.1 °F /  -3.8 °C 9.4 °F /  -12.6 °C 1016.1 in /  34405.1 hPa ESE 1.6 mph /  2.6 km/h 14.5 mph /  23.3 km/h 37 % 0.0 in /  0 mm
14:52 25.1 °F /  -3.8 °C 9.8 °F /  -12.3 °C 1016.1 in /  34405.1 hPa NE 14.5 mph /  23.3 km/h 14.5 mph /  23.3 km/h 38 % 0.0 in /  0 mm
14:57 25.1 °F /  -3.8 °C 9.4 °F /  -12.6 °C 1015.8 in /  34395 hPa NE 6.4 mph /  10.3 km/h 20.9 mph /  33.6 km/h 37 % 0.0 in /  0 mm
15:02 25.3 °F /  -3.7 °C 9.6 °F /  -12.4 °C 1015.8 in /  34395 hPa NE 11.3 mph /  18.2 km/h 20.9 mph /  33.6 km/h 37 % 0.0 in /  0 mm
15:07 25.2 °F /  -3.8 °C 9.9 °F /  -12.3 °C 1016.1 in /  34405.1 hPa East 8.0 mph /  12.9 km/h 20.9 mph /  33.6 km/h 38 % 0.0 in /  0 mm
15:17 25.4 °F /  -3.7 °C 10.0 °F /  -12.2 °C 1015.8 in /  34395 hPa ENE 8.0 mph /  12.9 km/h 19.3 mph /  31.1 km/h 38 % 0.0 in /  0 mm
15:22 25.7 °F /  -3.5 °C 9.5 °F /  -12.5 °C 1015.8 in /  34395 hPa ENE 11.3 mph /  18.2 km/h 14.5 mph /  23.3 km/h 36 % 0.0 in /  0 mm
15:32 25.8 °F /  -3.4 °C 10.4 °F /  -12 °C 1015.5 in /  34384.8 hPa NE 6.4 mph /  10.3 km/h 16.1 mph /  25.9 km/h 38 % 0.0 in /  0 mm
15:37 25.8 °F /  -3.4 °C 9.2 °F /  -12.7 °C 1015.5 in /  34384.8 hPa ENE 9.7 mph /  15.6 km/h 20.9 mph /  33.6 km/h 35 % 0.0 in /  0 mm
15:42 25.8 °F /  -3.4 °C 9.2 °F /  -12.7 °C 1015.5 in /  34384.8 hPa East 3.2 mph /  5.1 km/h 20.9 mph /  33.6 km/h 35 % 0.0 in /  0 mm
15:47 26.0 °F /  -3.3 °C 9.8 °F /  -12.3 °C 1015.5 in /  34384.8 hPa ESE 8.0 mph /  12.9 km/h 20.9 mph /  33.6 km/h 36 % 0.0 in /  0 mm
15:52 25.9 °F /  -3.4 °C 9.3 °F /  -12.6 °C 1015.5 in /  34384.8 hPa North 6.4 mph /  10.3 km/h 19.3 mph /  31.1 km/h 35 % 0.0 in /  0 mm
15:57 25.9 °F /  -3.4 °C 8.8 °F /  -12.9 °C 1015.1 in /  34371.3 hPa ENE 6.4 mph /  10.3 km/h 19.3 mph /  31.1 km/h 34 % 0.0 in /  0 mm
16:02 26.3 °F /  -3.2 °C 9.6 °F /  -12.4 °C 1015.1 in /  34371.3 hPa ESE 3.2 mph /  5.1 km/h 14.5 mph /  23.3 km/h 35 % 0.0 in /  0 mm
16:07 26.6 °F /  -3 °C 9.0 °F /  -12.8 °C 1015.1 in /  34371.3 hPa East 1.6 mph /  2.6 km/h 14.5 mph /  23.3 km/h 33 % 0.0 in /  0 mm
16:12 26.7 °F /  -2.9 °C 9.1 °F /  -12.7 °C 1015.1 in /  34371.3 hPa SSE 3.2 mph /  5.1 km/h 12.9 mph /  20.8 km/h 33 % 0.0 in /  0 mm
16:17 26.8 °F /  -2.9 °C 10.1 °F /  -12.2 °C 1015.1 in /  34371.3 hPa Calm   11.3 mph /  18.2 km/h 35 % 0.0 in /  0 mm
16:22 27.1 °F /  -2.7 °C 9.0 °F /  -12.8 °C 1015.1 in /  34371.3 hPa East 1.6 mph /  2.6 km/h 11.3 mph /  18.2 km/h 32 % 0.0 in /  0 mm
16:27 27.2 °F /  -2.7 °C 9.5 °F /  -12.5 °C 1015.1 in /  34371.3 hPa ENE 4.8 mph /  7.7 km/h 8.0 mph /  12.9 km/h 33 % 0.0 in /  0 mm
16:32 27.3 °F /  -2.6 °C 9.6 °F /  -12.4 °C 1014.8 in /  34361.1 hPa NE 8.0 mph /  12.9 km/h 9.7 mph /  15.6 km/h 33 % 0.0 in /  0 mm
16:37 27.0 °F /  -2.8 °C 8.9 °F /  -12.8 °C 1015.1 in /  34371.3 hPa ENE 4.8 mph /  7.7 km/h 19.3 mph /  31.1 km/h 32 % 0.0 in /  0 mm
16:42 26.7 °F /  -2.9 °C 9.5 °F /  -12.5 °C 1014.8 in /  34361.1 hPa ENE 8.0 mph /  12.9 km/h 20.9 mph /  33.6 km/h 34 % 0.0 in /  0 mm
16:47 26.9 °F /  -2.8 °C 9.7 °F /  -12.4 °C 1014.8 in /  34361.1 hPa ESE 3.2 mph /  5.1 km/h 20.9 mph /  33.6 km/h 34 % 0.0 in /  0 mm
16:52 27.3 °F /  -2.6 °C 10.1 °F /  -12.2 °C 1014.8 in /  34361.1 hPa NE 3.2 mph /  5.1 km/h 17.7 mph /  28.5 km/h 34 % 0.0 in /  0 mm
16:57 26.8 °F /  -2.9 °C 9.6 °F /  -12.4 °C 1014.4 in /  34347.6 hPa NE 8.0 mph /  12.9 km/h 14.5 mph /  23.3 km/h 34 % 0.0 in /  0 mm
17:02 26.7 °F /  -2.9 °C 9.5 °F /  -12.5 °C 1014.4 in /  34347.6 hPa ENE 8.0 mph /  12.9 km/h 11.3 mph /  18.2 km/h 34 % 0.0 in /  0 mm
17:07 27.0 °F /  -2.8 °C 9.8 °F /  -12.3 °C 1014.4 in /  34347.6 hPa NE 6.4 mph /  10.3 km/h 11.3 mph /  18.2 km/h 34 % 0.0 in /  0 mm
17:12 26.9 °F /  -2.8 °C 10.6 °F /  -11.9 °C 1014.4 in /  34347.6 hPa Calm   11.3 mph /  18.2 km/h 36 % 0.0 in /  0 mm
17:17 27.1 °F /  -2.7 °C 10.3 °F /  -12.1 °C 1014.4 in /  34347.6 hPa NE 4.8 mph /  7.7 km/h 11.3 mph /  18.2 km/h 35 % 0.0 in /  0 mm
17:22 26.9 °F /  -2.8 °C 10.1 °F /  -12.2 °C 1014.4 in /  34347.6 hPa ENE 9.7 mph /  15.6 km/h 9.7 mph /  15.6 km/h 35 % 0.0 in /  0 mm
17:27 27.1 °F /  -2.7 °C 10.3 °F /  -12.1 °C 1014.4 in /  34347.6 hPa NE 12.9 mph /  20.8 km/h 14.5 mph /  23.3 km/h 35 % 0.0 in /  0 mm
17:32 26.8 °F /  -2.9 °C 10.1 °F /  -12.2 °C 1014.4 in /  34347.6 hPa ENE 12.9 mph /  20.8 km/h 14.5 mph /  23.3 km/h 35 % 0.0 in /  0 mm
17:37 26.6 °F /  -3 °C 9.9 °F /  -12.3 °C 1014.4 in /  34347.6 hPa ENE 4.8 mph /  7.7 km/h 17.7 mph /  28.5 km/h 35 % 0.0 in /  0 mm
17:42 26.6 °F /  -3 °C 9.9 °F /  -12.3 °C 1014.4 in /  34347.6 hPa NE 4.8 mph /  7.7 km/h 17.7 mph /  28.5 km/h 35 % 0.0 in /  0 mm
17:52 26.6 °F /  -3 °C 10.7 °F /  -11.8 °C 1014.1 in /  34337.4 hPa SSW 1.6 mph /  2.6 km/h 8.0 mph /  12.9 km/h 37 % 0.0 in /  0 mm
17:57 26.7 °F /  -2.9 °C 10.0 °F /  -12.2 °C 1014.1 in /  34337.4 hPa ENE 1.6 mph /  2.6 km/h 8.0 mph /  12.9 km/h 35 % 0.0 in /  0 mm
18:02 27.0 °F /  -2.8 °C 10.7 °F /  -11.8 °C 1014.1 in /  34337.4 hPa Calm   8.0 mph /  12.9 km/h 36 % 0.0 in /  0 mm
18:07 27.4 °F /  -2.6 °C 10.6 °F /  -11.9 °C 1014.1 in /  34337.4 hPa East 4.8 mph /  7.7 km/h 8.0 mph /  12.9 km/h 35 % 0.0 in /  0 mm
18:12 27.2 °F /  -2.7 °C 10.8 °F /  -11.8 °C 1013.8 in /  34327.3 hPa NNE 4.8 mph /  7.7 km/h 9.7 mph /  15.6 km/h 36 % 0.0 in /  0 mm
18:17 27.2 °F /  -2.7 °C 10.4 °F /  -12 °C 1013.8 in /  34327.3 hPa NNE 3.2 mph /  5.1 km/h 14.5 mph /  23.3 km/h 35 % 0.0 in /  0 mm
18:22 27.1 °F /  -2.7 °C 10.3 °F /  -12.1 °C 1013.8 in /  34327.3 hPa NNE 1.6 mph /  2.6 km/h 14.5 mph /  23.3 km/h 35 % 0.0 in /  0 mm
18:27 26.8 °F /  -2.9 °C 10.5 °F /  -11.9 °C 1013.8 in /  34327.3 hPa NNW 4.8 mph /  7.7 km/h 14.5 mph /  23.3 km/h 36 % 0.0 in /  0 mm
18:32 26.7 °F /  -2.9 °C 10.4 °F /  -12 °C 1013.8 in /  34327.3 hPa North 6.4 mph /  10.3 km/h 11.3 mph /  18.2 km/h 36 % 0.0 in /  0 mm
18:37 26.6 °F /  -3 °C 10.7 °F /  -11.8 °C 1013.8 in /  34327.3 hPa NNE 12.9 mph /  20.8 km/h 12.9 mph /  20.8 km/h 37 % 0.0 in /  0 mm
18:42 26.3 °F /  -3.2 °C 10.8 °F /  -11.8 °C 1013.8 in /  34327.3 hPa North 4.8 mph /  7.7 km/h 12.9 mph /  20.8 km/h 38 % 0.0 in /  0 mm
18:52 26.1 °F /  -3.3 °C 10.7 °F /  -11.8 °C 1013.8 in /  34327.3 hPa East 3.2 mph /  5.1 km/h 12.9 mph /  20.8 km/h 38 % 0.0 in /  0 mm
18:57 26.1 °F /  -3.3 °C 11.1 °F /  -11.6 °C 1013.8 in /  34327.3 hPa Calm   9.7 mph /  15.6 km/h 39 % 0.0 in /  0 mm
19:02 26.1 °F /  -3.3 °C 11.1 °F /  -11.6 °C 1013.8 in /  34327.3 hPa ENE 1.6 mph /  2.6 km/h 9.7 mph /  15.6 km/h 39 % 0.0 in /  0 mm
19:07 26.1 °F /  -3.3 °C 11.1 °F /  -11.6 °C 1013.8 in /  34327.3 hPa NE 4.8 mph /  7.7 km/h 8.0 mph /  12.9 km/h 39 % 0.0 in /  0 mm
19:12 25.9 °F /  -3.4 °C 10.9 °F /  -11.7 °C 1013.8 in /  34327.3 hPa NE 4.8 mph /  7.7 km/h 8.0 mph /  12.9 km/h 39 % 0.0 in /  0 mm
19:17 25.8 °F /  -3.4 °C 10.8 °F /  -11.8 °C 1013.8 in /  34327.3 hPa NE 1.6 mph /  2.6 km/h 6.4 mph /  10.3 km/h 39 % 0.0 in /  0 mm
19:22 25.8 °F /  -3.4 °C 10.8 °F /  -11.8 °C 1013.8 in /  34327.3 hPa NE 1.6 mph /  2.6 km/h 6.4 mph /  10.3 km/h 39 % 0.0 in /  0 mm
19:27 25.7 °F /  -3.5 °C 10.7 °F /  -11.8 °C 1013.8 in /  34327.3 hPa NE 4.8 mph /  7.7 km/h 6.4 mph /  10.3 km/h 39 % 0.0 in /  0 mm
19:32 25.6 °F /  -3.6 °C 11.0 °F /  -11.7 °C 1013.4 in /  34313.7 hPa NE 6.4 mph /  10.3 km/h 8.0 mph /  12.9 km/h 40 % 0.0 in /  0 mm
19:37 25.5 °F /  -3.6 °C 11.3 °F /  -11.5 °C 1013.4 in /  34313.7 hPa NE 8.0 mph /  12.9 km/h 8.0 mph /  12.9 km/h 41 % 0.0 in /  0 mm
19:42 25.3 °F /  -3.7 °C 11.5 °F /  -11.4 °C 1013.4 in /  34313.7 hPa NE 4.8 mph /  7.7 km/h 9.7 mph /  15.6 km/h 42 % 0.0 in /  0 mm
19:52 25.0 °F /  -3.9 °C 11.6 °F /  -11.3 °C 1013.4 in /  34313.7 hPa NE 8.0 mph /  12.9 km/h 9.7 mph /  15.6 km/h 43 % 0.0 in /  0 mm
19:57 24.8 °F /  -4 °C 11.4 °F /  -11.4 °C 1013.8 in /  34327.3 hPa Calm   12.9 mph /  20.8 km/h 43 % 0.0 in /  0 mm
20:02 24.6 °F /  -4.1 °C 11.9 °F /  -11.2 °C 1013.4 in /  34313.7 hPa NE 9.7 mph /  15.6 km/h 12.9 mph /  20.8 km/h 45 % 0.0 in /  0 mm
20:07 24.4 °F /  -4.2 °C 11.4 °F /  -11.4 °C 1013.8 in /  34327.3 hPa NE 3.2 mph /  5.1 km/h 12.9 mph /  20.8 km/h 44 % 0.0 in /  0 mm
20:12 24.3 °F /  -4.3 °C 11.3 °F /  -11.5 °C 1013.8 in /  34327.3 hPa Calm   11.3 mph /  18.2 km/h 44 % 0.0 in /  0 mm
20:22 24.2 °F /  -4.3 °C 11.2 °F /  -11.6 °C 1013.8 in /  34327.3 hPa NE 6.4 mph /  10.3 km/h 8.0 mph /  12.9 km/h 44 % 0.0 in /  0 mm
20:27 23.8 °F /  -4.6 °C 11.2 °F /  -11.6 °C 1013.4 in /  34313.7 hPa NE 6.4 mph /  10.3 km/h 9.7 mph /  15.6 km/h 45 % 0.0 in /  0 mm
20:32 23.6 °F /  -4.7 °C 11.3 °F /  -11.5 °C 1013.4 in /  34313.7 hPa ENE 6.4 mph /  10.3 km/h 9.7 mph /  15.6 km/h 46 % 0.0 in /  0 mm
20:37 23.6 °F /  -4.7 °C 11.3 °F /  -11.5 °C 1013.4 in /  34313.7 hPa NE 3.2 mph /  5.1 km/h 12.9 mph /  20.8 km/h 46 % 0.0 in /  0 mm
20:42 23.6 °F /  -4.7 °C 11.3 °F /  -11.5 °C 1013.8 in /  34327.3 hPa North 6.4 mph /  10.3 km/h 12.9 mph /  20.8 km/h 46 % 0.0 in /  0 mm
20:47 23.5 °F /  -4.7 °C 11.2 °F /  -11.6 °C 1013.8 in /  34327.3 hPa NNW 1.6 mph /  2.6 km/h 11.3 mph /  18.2 km/h 46 % 0.0 in /  0 mm
20:52 23.4 °F /  -4.8 °C 11.1 °F /  -11.6 °C 1013.8 in /  34327.3 hPa ENE 4.8 mph /  7.7 km/h 9.7 mph /  15.6 km/h 46 % 0.0 in /  0 mm
20:57 23.3 °F /  -4.8 °C 11.0 °F /  -11.7 °C 1014.1 in /  34337.4 hPa NNW 3.2 mph /  5.1 km/h 9.7 mph /  15.6 km/h 46 % 0.0 in /  0 mm
21:02 23.3 °F /  -4.8 °C 11.0 °F /  -11.7 °C 1014.1 in /  34337.4 hPa NNW 3.2 mph /  5.1 km/h 8.0 mph /  12.9 km/h 46 % 0.0 in /  0 mm
21:07 23.3 °F /  -4.8 °C 11.0 °F /  -11.7 °C 1014.1 in /  34337.4 hPa North 8.0 mph /  12.9 km/h 8.0 mph /  12.9 km/h 46 % 0.0 in /  0 mm
21:12 23.3 °F /  -4.8 °C 11.0 °F /  -11.7 °C 1014.1 in /  34337.4 hPa NW 4.8 mph /  7.7 km/h 9.7 mph /  15.6 km/h 46 % 0.0 in /  0 mm
21:17 23.2 °F /  -4.9 °C 11.3 °F /  -11.5 °C 1014.1 in /  34337.4 hPa NNE 3.2 mph /  5.1 km/h 9.7 mph /  15.6 km/h 47 % 0.0 in /  0 mm
21:22 23.0 °F /  -5 °C 11.4 °F /  -11.4 °C 1013.8 in /  34327.3 hPa North 8.0 mph /  12.9 km/h 9.7 mph /  15.6 km/h 48 % 0.0 in /  0 mm
21:27 22.9 °F /  -5.1 °C 11.3 °F /  -11.5 °C 1013.8 in /  34327.3 hPa North 4.8 mph /  7.7 km/h 12.9 mph /  20.8 km/h 48 % 0.0 in /  0 mm
21:32 22.8 °F /  -5.1 °C 11.2 °F /  -11.6 °C 1014.1 in /  34337.4 hPa ENE 3.2 mph /  5.1 km/h 12.9 mph /  20.8 km/h 48 % 0.0 in /  0 mm
21:37 22.8 °F /  -5.1 °C 11.2 °F /  -11.6 °C 1014.1 in /  34337.4 hPa NE 11.3 mph /  18.2 km/h 12.9 mph /  20.8 km/h 48 % 0.0 in /  0 mm
21:42 22.7 °F /  -5.2 °C 11.4 °F /  -11.4 °C 1013.8 in /  34327.3 hPa North 11.3 mph /  18.2 km/h 16.1 mph /  25.9 km/h 49 % 0.0 in /  0 mm
21:47 22.6 °F /  -5.2 °C 11.3 °F /  -11.5 °C 1013.8 in /  34327.3 hPa NE 12.9 mph /  20.8 km/h 16.1 mph /  25.9 km/h 49 % 0.0 in /  0 mm
21:52 22.5 °F /  -5.3 °C 11.3 °F /  -11.5 °C 1013.8 in /  34327.3 hPa NE 8.0 mph /  12.9 km/h 16.1 mph /  25.9 km/h 49 % 0.0 in /  0 mm
21:57 22.3 °F /  -5.4 °C 11.4 °F /  -11.4 °C 1013.1 in /  34303.6 hPa ENE 12.9 mph /  20.8 km/h 16.1 mph /  25.9 km/h 50 % 0.0 in /  0 mm
22:02 22.1 °F /  -5.5 °C 12.6 °F /  -10.8 °C 1013.1 in /  34303.6 hPa ESE 9.7 mph /  15.6 km/h 20.9 mph /  33.6 km/h 55 % 0.0 in /  0 mm
22:07 21.6 °F /  -5.8 °C 13.0 °F /  -10.6 °C 1013.4 in /  34313.7 hPa ENE 9.7 mph /  15.6 km/h 20.9 mph /  33.6 km/h 58 % 0.0 in /  0 mm
22:12 21.2 °F /  -6 °C 13.1 °F /  -10.5 °C 1013.8 in /  34327.3 hPa ESE 1.6 mph /  2.6 km/h 20.9 mph /  33.6 km/h 60 % 0.0 in /  0 mm
22:17 21.0 °F /  -6.1 °C 12.9 °F /  -10.6 °C 1013.8 in /  34327.3 hPa East 4.8 mph /  7.7 km/h 16.1 mph /  25.9 km/h 60 % 0.0 in /  0 mm
22:22 20.8 °F /  -6.2 °C 13.3 °F /  -10.4 °C 1013.4 in /  34313.7 hPa East 1.6 mph /  2.6 km/h 11.3 mph /  18.2 km/h 62 % 0.0 in /  0 mm
22:27 20.8 °F /  -6.2 °C 13.0 °F /  -10.6 °C 1013.8 in /  34327.3 hPa Calm   11.3 mph /  18.2 km/h 61 % 0.0 in /  0 mm
22:37 20.3 °F /  -6.5 °C 13.7 °F /  -10.2 °C 1013.1 in /  34303.6 hPa East 4.8 mph /  7.7 km/h 11.3 mph /  18.2 km/h 66 % 0.0 in /  0 mm
22:42 20.1 °F /  -6.6 °C 14.0 °F /  -10 °C 1013.1 in /  34303.6 hPa ENE 4.8 mph /  7.7 km/h 8.0 mph /  12.9 km/h 68 % 0.0 in /  0 mm
22:47 20.0 °F /  -6.7 °C 13.9 °F /  -10.1 °C 1012.8 in /  34293.4 hPa NE 3.2 mph /  5.1 km/h 6.4 mph /  10.3 km/h 68 % 0.0 in /  0 mm
22:52 19.8 °F /  -6.8 °C 13.9 °F /  -10.1 °C 1012.8 in /  34293.4 hPa NNE 3.2 mph /  5.1 km/h 8.0 mph /  12.9 km/h 69 % 0.0 in /  0 mm
22:57 19.8 °F /  -6.8 °C 13.9 °F /  -10.1 °C 1012.8 in /  34293.4 hPa NNE 4.8 mph /  7.7 km/h 8.0 mph /  12.9 km/h 69 % 0.0 in /  0 mm
23:02 19.8 °F /  -6.8 °C 14.2 °F /  -9.9 °C 1012.8 in /  34293.4 hPa Calm   8.0 mph /  12.9 km/h 70 % 0.0 in /  0 mm
23:07 19.7 °F /  -6.8 °C 13.9 °F /  -10.1 °C 1012.8 in /  34293.4 hPa NE 1.6 mph /  2.6 km/h 6.4 mph /  10.3 km/h 69 % 0.0 in /  0 mm
23:12 19.7 °F /  -6.8 °C 14.1 °F /  -9.9 °C 1012.8 in /  34293.4 hPa Calm   6.4 mph /  10.3 km/h 70 % 0.0 in /  0 mm
23:17 19.6 °F /  -6.9 °C 14.0 °F /  -10 °C 1012.8 in /  34293.4 hPa Calm   3.2 mph /  5.1 km/h 70 % 0.0 in /  0 mm
23:22 19.5 °F /  -6.9 °C 14.1 °F /  -9.9 °C 1012.8 in /  34293.4 hPa Calm   1.6 mph /  2.6 km/h 71 % 0.0 in /  0 mm
23:27 19.4 °F /  -7 °C 14.2 °F /  -9.9 °C 1012.8 in /  34293.4 hPa Calm   1.6 mph /  2.6 km/h 72 % 0.0 in /  0 mm
23:32 19.2 °F /  -7.1 °C 14.5 °F /  -9.7 °C 1012.4 in /  34279.9 hPa Calm   1.6 mph /  2.6 km/h 74 % 0.0 in /  0 mm
23:37 19.0 °F /  -7.2 °C 14.5 °F /  -9.7 °C 1012.8 in /  34293.4 hPa Calm     75 % 0.0 in /  0 mm
23:42 18.9 °F /  -7.3 °C 14.6 °F /  -9.7 °C 1012.4 in /  34279.9 hPa Calm     76 % 0.0 in /  0 mm
23:52 18.5 °F /  -7.5 °C 14.6 °F /  -9.7 °C 1012.4 in /  34279.9 hPa Calm   1.6 mph /  2.6 km/h 78 % 0.0 in /  0 mm
23:57 18.3 °F /  -7.6 °C 14.2 °F /  -9.9 °C 1012.4 in /  34279.9 hPa WNW 3.2 mph /  5.1 km/h 3.2 mph /  5.1 km/h 77 % 0.0 in /  0 mm
Meteo18
Compliments of Weather Underground - 4 mb

Script developed by  Jim McMurry - jmcmurry@mwt.net Adapted for the template by  Wim van der Kuil - Leuven-Template.eu

You find our weather info also at:

European Weather Network

Weather Underground

Equipment we use:

Weather-station
Davis Vue

Weather-program
Meteobridge

Weather-server
Raspberry PI 2 B+

Provider
1 and 1

Davis Vue

Meteobridge

Raspberry PI 2 B+

1 and 1